Time;durP1;ratioP1;P1;durP2;ratioP2;P2;SDS_P1;SDS_P2;PMS_P1;PMS_P2;Temp;Humidity;BMP_temperature;BMP_pressure;BME280_temperature;BME280_humidity;BME280_pressure;Samples;Min_cycle;Max_cycle;Signal;HPM_P1;HPM_P2
2023/10/06 00:01:25;;;;;;;9.00;5.35;;;;;;;;;;5076790;28;20040;-81
2023/10/06 00:03:57;;;;;;;13.10;6.28;;;;;;;;;;5060272;28;20075;-81
2023/10/06 00:06:27;;;;;;;11.48;6.20;;;;;;;;;;5076630;28;20044;-80
2023/10/06 00:08:56;;;;;;;10.65;5.78;;;;;;;;;;5076991;28;20097;-80
2023/10/06 00:11:31;;;;;;;9.77;6.25;;;;;;;;;;5060610;28;20040;-80
2023/10/06 00:14:00;;;;;;;10.05;6.38;;;;;;;;;;5077103;28;20048;-80
2023/10/06 00:16:34;;;;;;;12.23;6.50;;;;;;;;;;5076949;28;20105;-80
2023/10/06 00:19:13;;;;;;;13.70;7.30;;;;;;;;;;5076954;28;20063;-80
2023/10/06 00:21:46;;;;;;;10.35;6.93;;;;;;;;;;5077283;28;20044;-80
2023/10/06 00:24:13;;;;;;;9.32;7.18;;;;;;;;;;5077723;28;20052;-80
2023/10/06 00:26:42;;;;;;;11.45;7.03;;;;;;;;;;5060132;28;20100;-80
2023/10/06 00:29:18;;;;;;;13.57;7.07;;;;;;;;;;5076504;28;20048;-80
2023/10/06 00:31:48;;;;;;;12.88;7.15;;;;;;;;;;5059747;28;20055;-80
2023/10/06 00:34:20;;;;;;;12.70;7.00;;;;;;;;;;5076903;28;20098;-80
2023/10/06 00:36:52;;;;;;;13.25;7.10;;;;;;;;;;5077427;28;20047;-80
2023/10/06 00:39:26;;;;;;;11.70;7.18;;;;;;;;;;5076931;28;20054;-80
2023/10/06 00:41:56;;;;;;;10.50;6.55;;;;;;;;;;5059628;28;20044;-81
2023/10/06 00:44:26;;;;;;;8.68;6.00;;;;;;;;;;5060420;28;20052;-80
2023/10/06 00:46:52;;;;;;;11.63;6.55;;;;;;;;;;5043062;28;20059;-80
2023/10/06 00:49:19;;;;;;;9.02;5.55;;;;;;;;;;5075716;28;20066;-80
2023/10/06 00:51:47;;;;;;;11.93;7.03;;;;;;;;;;5076408;28;20047;-81
2023/10/06 00:54:14;;;;;;;11.40;6.47;;;;;;;;;;5076604;28;20065;-81
2023/10/06 00:56:40;;;;;;;11.55;6.10;;;;;;;;;;5060318;28;20044;-80
2023/10/06 00:59:07;;;;;;;9.48;6.45;;;;;;;;;;5059979;28;20157;-81
2023/10/06 01:01:34;;;;;;;8.98;7.00;;;;;;;;;;5076253;28;20048;-81
2023/10/06 01:04:11;;;;;;;11.55;6.72;;;;;;;;;;5044000;28;20044;-81
2023/10/06 01:06:38;;;;;;;12.13;7.05;;;;;;;;;;5044246;28;20055;-80
2023/10/06 01:11:45;;;;;;;16.02;7.35;;;;;;;;;;5076948;28;20052;-80
2023/10/06 01:14:14;;;;;;;10.35;6.63;;;;;;;;;;5059178;28;20047;-81
2023/10/06 01:16:42;;;;;;;10.23;6.97;;;;;;;;;;5076405;28;20048;-80
2023/10/06 01:19:17;;;;;;;13.57;6.82;;;;;;;;;;5060785;28;20059;-80
2023/10/06 01:21:45;;;;;;;10.73;6.55;;;;;;;;;;5060132;28;20051;-80
2023/10/06 01:24:15;;;;;;;9.35;7.00;;;;;;;;;;5060212;28;20043;-81
2023/10/06 01:26:41;;;;;;;11.40;7.38;;;;;;;;;;5059696;28;20480;-80
2023/10/06 01:29:13;;;;;;;9.45;7.13;;;;;;;;;;5076718;28;20361;-80
2023/10/06 01:31:40;;;;;;;14.82;7.25;;;;;;;;;;5059148;28;20137;-80
2023/10/06 01:34:11;;;;;;;13.05;7.00;;;;;;;;;;5059709;28;20059;-80
2023/10/06 01:36:42;;;;;;;12.57;6.70;;;;;;;;;;5059370;28;20036;-80
2023/10/06 01:39:16;;;;;;;11.90;6.95;;;;;;;;;;5076749;28;20170;-80
2023/10/06 01:41:49;;;;;;;11.73;6.97;;;;;;;;;;5060266;28;20036;-81
2023/10/06 01:44:16;;;;;;;11.80;6.95;;;;;;;;;;5076600;28;20040;-80
2023/10/06 01:46:55;;;;;;;10.68;7.15;;;;;;;;;;5075747;28;20044;-79
2023/10/06 01:49:21;;;;;;;14.77;7.45;;;;;;;;;;5059922;28;20144;-81
2023/10/06 01:51:50;;;;;;;12.90;6.90;;;;;;;;;;5059779;28;20044;-79
2023/10/06 01:54:17;;;;;;;8.43;6.10;;;;;;;;;;5075575;28;20044;-80
2023/10/06 01:56:44;;;;;;;11.02;6.97;;;;;;;;;;5076659;28;20048;-80
2023/10/06 01:59:10;;;;;;;9.57;6.65;;;;;;;;;;5058843;28;20105;-80
2023/10/06 02:01:41;;;;;;;12.18;7.20;;;;;;;;;;5080125;28;20089;-80
2023/10/06 02:04:10;;;;;;;16.50;6.95;;;;;;;;;;5063194;28;20434;-80
2023/10/06 02:06:36;;;;;;;8.48;6.55;;;;;;;;;;5046408;28;20044;-80
2023/10/06 02:09:05;;;;;;;11.48;6.82;;;;;;;;;;5046314;28;20476;-80
2023/10/06 02:11:32;;;;;;;11.35;6.40;;;;;;;;;;5063280;28;20040;-80
2023/10/06 02:13:58;;;;;;;11.73;6.63;;;;;;;;;;5062208;28;20122;-81
2023/10/06 02:16:26;;;;;;;12.40;8.35;;;;;;;;;;5062488;28;20056;-80
2023/10/06 02:18:56;;;;;;;13.07;8.38;;;;;;;;;;5079704;28;20055;-81
2023/10/06 02:21:25;;;;;;;10.07;7.55;;;;;;;;;;5079251;28;20396;-80
2023/10/06 02:23:59;;;;;;;12.73;8.13;;;;;;;;;;5046252;28;20055;-80
2023/10/06 02:26:25;;;;;;;15.27;7.53;;;;;;;;;;5064079;28;20396;-81
2023/10/06 02:28:53;;;;;;;12.85;8.45;;;;;;;;;;5062752;28;20047;-80
2023/10/06 02:31:21;;;;;;;15.02;8.68;;;;;;;;;;5061603;28;20056;-80
2023/10/06 02:33:51;;;;;;;11.88;8.52;;;;;;;;;;5042850;28;20045;-81
2023/10/06 02:36:17;;;;;;;12.63;8.40;;;;;;;;;;5059048;28;20080;-80
2023/10/06 02:38:47;;;;;;;14.35;7.78;;;;;;;;;;5043082;28;20049;-80
2023/10/06 02:41:18;;;;;;;11.68;8.27;;;;;;;;;;5042040;28;20063;-80
2023/10/06 02:43:45;;;;;;;15.73;8.50;;;;;;;;;;5059317;28;20503;-80
2023/10/06 02:46:11;;;;;;;17.80;9.07;;;;;;;;;;5041837;28;20480;-80
2023/10/06 02:48:37;;;;;;;12.07;8.85;;;;;;;;;;5025638;28;20131;-80
2023/10/06 02:51:06;;;;;;;13.15;8.50;;;;;;;;;;5026108;28;20146;-80
2023/10/06 02:53:35;;;;;;;17.95;8.57;;;;;;;;;;5041845;28;20041;-81
2023/10/06 02:56:09;;;;;;;14.20;7.57;;;;;;;;;;5042297;28;20051;-80
2023/10/06 02:58:35;;;;;;;14.90;8.40;;;;;;;;;;5042028;28;20107;-80
2023/10/06 03:01:03;;;;;;;14.73;7.93;;;;;;;;;;5058052;28;20048;-80
2023/10/06 03:03:33;;;;;;;12.95;7.88;;;;;;;;;;5058308;28;20135;-80
2023/10/06 03:06:06;;;;;;;12.15;8.13;;;;;;;;;;5058263;28;20052;-80
2023/10/06 03:08:35;;;;;;;12.40;7.82;;;;;;;;;;5041546;28;20131;-79
2023/10/06 03:11:01;;;;;;;14.68;7.70;;;;;;;;;;5057436;28;20067;-79
2023/10/06 03:13:36;;;;;;;14.15;7.40;;;;;;;;;;5041301;28;20048;-79
2023/10/06 03:16:10;;;;;;;10.52;7.35;;;;;;;;;;5057949;28;20477;-80
2023/10/06 03:18:36;;;;;;;11.63;7.38;;;;;;;;;;5058600;28;20049;-80
2023/10/06 03:21:14;;;;;;;17.70;7.70;;;;;;;;;;5040859;28;20484;-80
2023/10/06 03:23:44;;;;;;;12.10;6.78;;;;;;;;;;5041482;28;20056;-80
2023/10/06 03:26:25;;;;;;;10.20;7.07;;;;;;;;;;5040797;28;20131;-80
2023/10/06 03:28:53;;;;;;;14.85;7.38;;;;;;;;;;5058459;28;20052;-80
2023/10/06 03:33:46;;;;;;;10.23;6.85;;;;;;;;;;5057483;28;20059;-80
2023/10/06 03:36:16;;;;;;;8.88;6.70;;;;;;;;;;5057633;28;20131;-80
2023/10/06 03:38:57;;;;;;;13.13;7.30;;;;;;;;;;5040526;28;20048;-80
2023/10/06 03:41:31;;;;;;;12.52;7.50;;;;;;;;;;5057716;28;20127;-80
2023/10/06 03:44:03;;;;;;;8.85;6.38;;;;;;;;;;5057817;28;20048;-80
2023/10/06 03:46:37;;;;;;;13.07;7.10;;;;;;;;;;5057724;28;20067;-79
2023/10/06 03:49:03;;;;;;;12.63;6.22;;;;;;;;;;5058126;28;20181;-79
2023/10/06 03:51:33;;;;;;;10.23;6.47;;;;;;;;;;5058049;28;20056;-79
2023/10/06 03:54:00;;;;;;;10.80;6.63;;;;;;;;;;5040776;28;20385;-79
2023/10/06 03:56:26;;;;;;;11.93;6.97;;;;;;;;;;5057302;28;20125;-80
2023/10/06 03:58:53;;;;;;;12.85;6.53;;;;;;;;;;5040560;28;20051;-80
2023/10/06 04:01:26;;;;;;;7.80;6.47;;;;;;;;;;5040610;28;20048;-80
2023/10/06 04:03:53;;;;;;;8.40;6.90;;;;;;;;;;5057159;28;20469;-80
2023/10/06 04:06:23;;;;;;;11.70;6.28;;;;;;;;;;5056549;28;20123;-80
2023/10/06 04:08:49;;;;;;;10.95;6.72;;;;;;;;;;5056926;28;20076;-79
2023/10/06 04:11:16;;;;;;;13.45;7.35;;;;;;;;;;5056717;28;20550;-80
2023/10/06 04:13:43;;;;;;;13.65;7.10;;;;;;;;;;5056299;28;20552;-80
2023/10/06 04:16:09;;;;;;;11.98;7.07;;;;;;;;;;5056587;28;20485;-80
2023/10/06 04:18:35;;;;;;;9.90;6.55;;;;;;;;;;5056627;28;20053;-80
2023/10/06 04:21:03;;;;;;;14.35;7.18;;;;;;;;;;5039744;28;20041;-80
2023/10/06 04:23:29;;;;;;;10.45;7.00;;;;;;;;;;5055757;28;20048;-80
2023/10/06 04:25:56;;;;;;;12.55;7.03;;;;;;;;;;5039953;28;20052;-79
2023/10/06 04:28:24;;;;;;;12.68;6.97;;;;;;;;;;5056476;28;20446;-80
2023/10/06 04:30:50;;;;;;;10.77;6.72;;;;;;;;;;5039735;28;20048;-80
2023/10/06 04:33:18;;;;;;;11.50;6.68;;;;;;;;;;5073004;28;20067;-79
2023/10/06 04:38:45;;;;;;;14.90;7.45;;;;;;;;;;5021645;28;20048;-80
2023/10/06 04:41:11;;;;;;;12.25;7.50;;;;;;;;;;5043075;28;20369;-79
2023/10/06 04:43:44;;;;;;;11.25;7.10;;;;;;;;;;5075896;28;20036;-80
2023/10/06 04:46:10;;;;;;;12.23;6.72;;;;;;;;;;5076758;28;20389;-80
2023/10/06 04:48:36;;;;;;;12.50;7.18;;;;;;;;;;5043186;28;20360;-80
2023/10/06 04:51:03;;;;;;;14.43;7.53;;;;;;;;;;5076086;28;20056;-79
2023/10/06 04:53:32;;;;;;;9.55;7.43;;;;;;;;;;5043036;28;20052;-79
2023/10/06 04:55:58;;;;;;;8.63;7.22;;;;;;;;;;5060170;28;20048;-79
2023/10/06 04:58:24;;;;;;;13.90;8.43;;;;;;;;;;5059413;28;20047;-79
2023/10/06 05:00:53;;;;;;;14.55;8.50;;;;;;;;;;5059389;28;20050;-79
2023/10/06 05:03:19;;;;;;;15.25;8.30;;;;;;;;;;5076144;28;20395;-79
2023/10/06 05:05:45;;;;;;;12.52;7.72;;;;;;;;;;5076142;28;20047;-80
2023/10/06 05:08:14;;;;;;;12.20;7.88;;;;;;;;;;5076561;28;20089;-78
2023/10/06 05:10:41;;;;;;;15.98;8.00;;;;;;;;;;5060672;28;20056;-78
2023/10/06 05:13:08;;;;;;;13.60;8.10;;;;;;;;;;5060037;28;20390;-79
2023/10/06 05:15:34;;;;;;;9.48;7.60;;;;;;;;;;5076221;28;20481;-79
2023/10/06 05:18:02;;;;;;;11.52;7.57;;;;;;;;;;5076784;28;20048;-79
2023/10/06 05:20:32;;;;;;;13.35;7.25;;;;;;;;;;5075568;28;20044;-79
2023/10/06 05:23:05;;;;;;;13.98;7.65;;;;;;;;;;5059153;28;20070;-79
2023/10/06 05:25:33;;;;;;;17.23;7.75;;;;;;;;;;5076773;28;20044;-79
2023/10/06 05:27:59;;;;;;;14.02;7.68;;;;;;;;;;5058776;28;20059;-79
2023/10/06 05:30:29;;;;;;;11.32;7.97;;;;;;;;;;5075646;28;20048;-79
2023/10/06 05:32:59;;;;;;;14.57;8.45;;;;;;;;;;5059330;28;20064;-80
2023/10/06 05:35:30;;;;;;;14.18;8.38;;;;;;;;;;5079113;28;20429;-79
2023/10/06 05:37:57;;;;;;;15.55;7.93;;;;;;;;;;5097577;28;20504;-79
2023/10/06 05:40:25;;;;;;;13.95;8.38;;;;;;;;;;5079791;28;20391;-80
2023/10/06 05:42:51;;;;;;;14.18;7.45;;;;;;;;;;5079422;28;20480;-79
2023/10/06 05:45:18;;;;;;;13.20;7.43;;;;;;;;;;5097565;28;20044;-79
2023/10/06 05:47:51;;;;;;;10.50;7.68;;;;;;;;;;5063132;28;20225;-79
2023/10/06 05:50:27;;;;;;;12.93;6.95;;;;;;;;;;5079484;28;20097;-78
2023/10/06 05:53:09;;;;;;;13.48;7.45;;;;;;;;;;5079992;28;20367;-79
2023/10/06 05:55:37;;;;;;;11.30;7.18;;;;;;;;;;5063643;28;20056;-78
2023/10/06 05:58:04;;;;;;;11.50;7.13;;;;;;;;;;5079216;28;20541;-79
2023/10/06 06:00:33;;;;;;;14.80;6.93;;;;;;;;;;5062768;28;20047;-78
2023/10/06 06:03:13;;;;;;;13.43;7.88;;;;;;;;;;5096673;28;20511;-78
2023/10/06 06:05:40;;;;;;;12.05;7.45;;;;;;;;;;5079093;28;20044;-79
2023/10/06 06:08:08;;;;;;;13.70;7.07;;;;;;;;;;5079134;28;20054;-78
2023/10/06 06:10:35;;;;;;;11.20;6.70;;;;;;;;;;5046018;28;20519;-78
2023/10/06 06:13:01;;;;;;;12.05;6.70;;;;;;;;;;5062251;28;20400;-78
2023/10/06 06:15:27;;;;;;;13.88;6.38;;;;;;;;;;5062543;28;20134;-78
2023/10/06 06:17:54;;;;;;;13.73;6.00;;;;;;;;;;5079110;28;20449;-78
2023/10/06 06:20:21;;;;;;;12.40;6.38;;;;;;;;;;5079491;28;20052;-78
2023/10/06 06:22:53;;;;;;;14.50;6.30;;;;;;;;;;5078774;28;20063;-79
2023/10/06 06:25:23;;;;;;;13.07;6.10;;;;;;;;;;5078760;28;20052;-78
2023/10/06 06:27:50;;;;;;;13.32;6.43;;;;;;;;;;5062154;28;20484;-79
2023/10/06 06:30:18;;;;;;;11.80;6.63;;;;;;;;;;5078617;28;20051;-79
2023/10/06 06:32:45;;;;;;;8.77;6.50;;;;;;;;;;5078919;28;20068;-78
2023/10/06 06:35:13;;;;;;;10.95;5.82;;;;;;;;;;5078404;28;20048;-79
2023/10/06 06:37:43;;;;;;;9.82;5.68;;;;;;;;;;5061885;28;20044;-78
2023/10/06 06:40:12;;;;;;;15.23;5.68;;;;;;;;;;5079153;28;20490;-78
2023/10/06 06:42:39;;;;;;;9.77;5.18;;;;;;;;;;5078097;28;20047;-78
2023/10/06 06:45:06;;;;;;;8.45;5.20;;;;;;;;;;5078660;28;20146;-79
2023/10/06 06:47:32;;;;;;;8.95;5.68;;;;;;;;;;5060502;28;20472;-78
2023/10/06 06:50:00;;;;;;;9.07;5.25;;;;;;;;;;5078555;28;20044;-78
2023/10/06 06:52:28;;;;;;;8.00;5.35;;;;;;;;;;5078164;28;20074;-78
2023/10/06 06:54:54;;;;;;;12.60;5.05;;;;;;;;;;5078945;28;20054;-77
2023/10/06 06:57:21;;;;;;;10.50;5.28;;;;;;;;;;5077811;28;20044;-79
2023/10/06 06:59:47;;;;;;;8.00;5.30;;;;;;;;;;5078127;28;20101;-78
2023/10/06 07:02:14;;;;;;;11.73;5.13;;;;;;;;;;5077761;28;20040;-78
2023/10/06 07:04:40;;;;;;;7.78;4.53;;;;;;;;;;5077999;28;20477;-78
2023/10/06 07:07:06;;;;;;;11.88;5.25;;;;;;;;;;5096554;28;20051;-77
2023/10/06 07:09:32;;;;;;;12.40;4.97;;;;;;;;;;5077634;28;20055;-78
2023/10/06 07:11:58;;;;;;;8.55;5.30;;;;;;;;;;5095634;28;20036;-78
2023/10/06 07:14:27;;;;;;;10.25;5.45;;;;;;;;;;5061063;28;20055;-78
2023/10/06 07:16:53;;;;;;;14.43;5.10;;;;;;;;;;5077773;28;20058;-77
2023/10/06 07:19:19;;;;;;;13.35;5.47;;;;;;;;;;5077731;28;20150;-78
2023/10/06 07:21:45;;;;;;;8.27;5.03;;;;;;;;;;5060865;28;20040;-78
2023/10/06 07:24:13;;;;;;;10.10;4.53;;;;;;;;;;5078468;28;20044;-78
2023/10/06 07:26:43;;;;;;;13.07;5.03;;;;;;;;;;5061220;28;20052;-78
2023/10/06 07:29:10;;;;;;;13.02;5.05;;;;;;;;;;5077556;28;20048;-79
2023/10/06 07:31:36;;;;;;;11.73;4.70;;;;;;;;;;5061102;28;20387;-78
2023/10/06 07:34:03;;;;;;;11.60;5.20;;;;;;;;;;5060777;28;20113;-78
2023/10/06 07:36:30;;;;;;;11.13;5.20;;;;;;;;;;5044089;28;20545;-78
2023/10/06 07:38:57;;;;;;;9.43;4.63;;;;;;;;;;5077625;28;20055;-78
2023/10/06 07:41:24;;;;;;;12.20;5.25;;;;;;;;;;5077858;28;20054;-78
2023/10/06 07:43:50;;;;;;;10.88;5.05;;;;;;;;;;5077288;28;20135;-78
2023/10/06 07:46:16;;;;;;;6.60;4.68;;;;;;;;;;5077710;28;20062;-78
2023/10/06 07:48:45;;;;;;;10.07;4.75;;;;;;;;;;5061216;28;20055;-78
2023/10/06 07:51:13;;;;;;;10.07;4.90;;;;;;;;;;5060821;28;20047;-78
2023/10/06 07:53:40;;;;;;;12.93;5.03;;;;;;;;;;5077388;28;20392;-78
2023/10/06 07:56:06;;;;;;;8.75;5.13;;;;;;;;;;5060584;28;20051;-78
2023/10/06 07:58:41;;;;;;;8.57;4.78;;;;;;;;;;5059988;28;20051;-78
2023/10/06 08:01:08;;;;;;;8.18;4.80;;;;;;;;;;5095172;28;20071;-78
2023/10/06 08:03:41;;;;;;;9.93;5.15;;;;;;;;;;5060847;28;20055;-78
2023/10/06 08:06:10;;;;;;;11.90;5.65;;;;;;;;;;5077561;28;20048;-78
2023/10/06 08:08:37;;;;;;;7.60;4.65;;;;;;;;;;5060100;28;20070;-78
2023/10/06 08:11:05;;;;;;;12.55;5.60;;;;;;;;;;5076751;28;20086;-78
2023/10/06 08:13:35;;;;;;;13.05;4.90;;;;;;;;;;5077300;28;20392;-78
2023/10/06 08:16:01;;;;;;;10.23;5.30;;;;;;;;;;5076432;28;20105;-78
2023/10/06 08:18:30;;;;;;;10.05;4.90;;;;;;;;;;5077386;28;20073;-78
2023/10/06 08:20:59;;;;;;;12.27;4.97;;;;;;;;;;5076724;28;20063;-78
2023/10/06 08:23:25;;;;;;;10.18;4.78;;;;;;;;;;5076377;28;20044;-79
2023/10/06 08:25:56;;;;;;;10.45;5.00;;;;;;;;;;5076441;28;20047;-78
2023/10/06 08:28:23;;;;;;;10.35;5.38;;;;;;;;;;5076814;28;20054;-78
2023/10/06 08:30:49;;;;;;;13.85;5.85;;;;;;;;;;5076613;28;20052;-79
2023/10/06 08:33:15;;;;;;;13.57;5.82;;;;;;;;;;5059101;28;20500;-79
2023/10/06 08:35:41;;;;;;;15.07;4.95;;;;;;;;;;5076626;28;20196;-78
2023/10/06 08:38:07;;;;;;;10.07;5.60;;;;;;;;;;5076261;28;20165;-78
2023/10/06 08:40:36;;;;;;;12.52;5.53;;;;;;;;;;5077125;28;20071;-78
2023/10/06 08:43:06;;;;;;;11.68;5.22;;;;;;;;;;5076153;28;20055;-76
2023/10/06 08:45:33;;;;;;;10.38;5.78;;;;;;;;;;5094031;28;20043;-76
2023/10/06 08:48:01;;;;;;;9.70;6.40;;;;;;;;;;5094000;28;20400;-77
2023/10/06 08:50:28;;;;;;;9.55;6.38;;;;;;;;;;5076888;28;20043;-76
2023/10/06 08:52:55;;;;;;;12.38;6.13;;;;;;;;;;5075872;28;20105;-76
2023/10/06 08:55:22;;;;;;;12.93;6.40;;;;;;;;;;5093876;28;20097;-76
2023/10/06 08:57:48;;;;;;;12.73;5.43;;;;;;;;;;5094354;28;20048;-76
2023/10/06 09:00:18;;;;;;;14.35;6.40;;;;;;;;;;5093380;28;20492;-76
2023/10/06 09:02:46;;;;;;;9.35;5.45;;;;;;;;;;5093767;28;20559;-76
2023/10/06 09:05:13;;;;;;;11.25;5.93;;;;;;;;;;5094266;28;20063;-76
2023/10/06 09:07:57;;;;;;;10.10;5.07;;;;;;;;;;5093705;28;20044;-77
2023/10/06 09:10:23;;;;;;;9.10;5.20;;;;;;;;;;5081951;28;20054;-76
2023/10/06 09:13:05;;;;;;;11.55;5.85;;;;;;;;;;5066024;28;20473;-76
2023/10/06 09:15:33;;;;;;;14.60;6.22;;;;;;;;;;5066409;28;20477;-76
2023/10/06 09:17:59;;;;;;;11.38;6.13;;;;;;;;;;5082516;28;20048;-77
2023/10/06 09:20:30;;;;;;;12.55;7.07;;;;;;;;;;5100309;28;20047;-76
2023/10/06 09:22:58;;;;;;;13.93;7.43;;;;;;;;;;5100410;28;20055;-79
2023/10/06 09:25:25;;;;;;;17.45;6.88;;;;;;;;;;5082521;28;20138;-78
2023/10/06 09:28:04;;;;;;;13.18;6.18;;;;;;;;;;5100346;28;20040;-77
2023/10/06 09:30:31;;;;;;;9.63;5.95;;;;;;;;;;5100324;28;20055;-78
2023/10/06 09:33:04;;;;;;;9.30;6.70;;;;;;;;;;5081984;28;20060;-78
2023/10/06 09:35:30;;;;;;;12.05;6.18;;;;;;;;;;5082356;28;20060;-78
2023/10/06 09:38:13;;;;;;;11.93;6.20;;;;;;;;;;5065914;28;20065;-79
2023/10/06 09:40:46;;;;;;;9.75;5.78;;;;;;;;;;5100264;28;20052;-78
2023/10/06 09:43:15;;;;;;;11.65;5.75;;;;;;;;;;5100817;28;20071;-78
2023/10/06 09:45:45;;;;;;;12.88;5.68;;;;;;;;;;5065395;28;20052;-78
2023/10/06 09:48:18;;;;;;;11.88;5.78;;;;;;;;;;5082931;28;20062;-78
2023/10/06 09:50:45;;;;;;;10.93;5.78;;;;;;;;;;5082627;28;20054;-78
2023/10/06 09:53:14;;;;;;;9.32;6.10;;;;;;;;;;5100223;28;20054;-78
2023/10/06 09:55:41;;;;;;;11.35;6.13;;;;;;;;;;5082214;28;20494;-78
2023/10/06 09:58:07;;;;;;;10.70;5.57;;;;;;;;;;5082278;28;20113;-78
2023/10/06 10:00:38;;;;;;;11.13;5.00;;;;;;;;;;5065419;28;20093;-78
2023/10/06 10:03:05;;;;;;;10.23;4.53;;;;;;;;;;5083069;28;20048;-78
2023/10/06 10:05:32;;;;;;;11.82;4.88;;;;;;;;;;5082437;28;20443;-78
2023/10/06 10:07:58;;;;;;;10.20;4.40;;;;;;;;;;5082470;28;20044;-78
2023/10/06 10:10:27;;;;;;;8.43;4.30;;;;;;;;;;5082152;28;20044;-78
2023/10/06 10:13:06;;;;;;;6.88;4.28;;;;;;;;;;5082097;28;20044;-78
2023/10/06 10:15:50;;;;;;;14.20;4.60;;;;;;;;;;5081958;28;20113;-79
2023/10/06 10:18:16;;;;;;;10.43;4.07;;;;;;;;;;5082028;28;20109;-78
2023/10/06 10:20:46;;;;;;;10.40;4.82;;;;;;;;;;5080681;28;20117;-78
2023/10/06 10:23:18;;;;;;;7.35;3.88;;;;;;;;;;5079775;28;20048;-79
2023/10/06 10:25:45;;;;;;;6.22;4.15;;;;;;;;;;5079196;28;20503;-78
2023/10/06 10:28:26;;;;;;;7.15;3.90;;;;;;;;;;5062758;28;20369;-79
2023/10/06 10:30:54;;;;;;;8.80;4.00;;;;;;;;;;5079756;28;20084;-79
2023/10/06 10:33:24;;;;;;;8.02;4.40;;;;;;;;;;5061883;28;20102;-79
2023/10/06 10:36:09;;;;;;;11.32;4.22;;;;;;;;;;5062034;28;20048;-82
2023/10/06 10:38:37;;;;;;;8.90;4.47;;;;;;;;;;5062106;28;20514;-79
2023/10/06 10:41:08;;;;;;;10.02;4.65;;;;;;;;;;5096437;28;20044;-79
2023/10/06 10:43:45;;;;;;;6.80;4.45;;;;;;;;;;5062803;28;20048;-79
2023/10/06 10:46:14;;;;;;;7.75;4.22;;;;;;;;;;5078279;28;20055;-79
2023/10/06 10:48:50;;;;;;;7.63;4.13;;;;;;;;;;5062026;28;20044;-79
2023/10/06 10:51:21;;;;;;;8.90;4.07;;;;;;;;;;5079277;28;20044;-79
2023/10/06 10:53:52;;;;;;;10.77;4.22;;;;;;;;;;5062260;28;20044;-79
2023/10/06 10:56:18;;;;;;;10.63;3.70;;;;;;;;;;5078576;28;20043;-79
2023/10/06 10:58:45;;;;;;;12.40;3.80;;;;;;;;;;5078304;28;20059;-79
2023/10/06 11:01:24;;;;;;;8.75;3.30;;;;;;;;;;5078044;28;20047;-79
2023/10/06 11:07:10;;;;;;;10.85;3.63;;;;;;;;;;5034420;28;20437;-79
2023/10/06 11:12:05;;;;;;;8.05;4.22;;;;;;;;;;5078389;28;20108;-79
2023/10/06 11:14:38;;;;;;;8.68;3.30;;;;;;;;;;5061596;28;20044;-79
2023/10/06 11:17:05;;;;;;;8.82;3.47;;;;;;;;;;5079189;28;20357;-79
2023/10/06 11:19:37;;;;;;;7.78;3.90;;;;;;;;;;5077858;28;20044;-79
2023/10/06 11:22:09;;;;;;;5.97;3.53;;;;;;;;;;5060709;28;20044;-79
2023/10/06 11:24:35;;;;;;;7.50;4.05;;;;;;;;;;5078272;28;20044;-80
2023/10/06 11:27:12;;;;;;;10.13;4.88;;;;;;;;;;5078787;28;20080;-80
2023/10/06 11:29:38;;;;;;;10.00;5.22;;;;;;;;;;5061197;28;20146;-79
2023/10/06 11:32:05;;;;;;;8.95;5.15;;;;;;;;;;5077250;28;20044;-79
2023/10/06 11:34:32;;;;;;;10.45;5.45;;;;;;;;;;5060830;28;20480;-78
2023/10/06 11:36:59;;;;;;;11.73;5.53;;;;;;;;;;5077728;28;20055;-78
2023/10/06 11:39:32;;;;;;;7.93;4.22;;;;;;;;;;5061266;28;20092;-79
2023/10/06 11:42:17;;;;;;;7.97;3.65;;;;;;;;;;5077521;28;20369;-79
2023/10/06 11:44:43;;;;;;;;;;;;;;;;;;5096164;28;20507;-79
2023/10/06 11:47:09;;;;;;;9.30;3.75;;;;;;;;;;5077333;28;20009;-79
2023/10/06 11:49:52;;;;;;;7.88;3.83;;;;;;;;;;5060679;28;20052;-79
2023/10/06 11:52:19;;;;;;;9.27;4.35;;;;;;;;;;5077301;28;20051;-79
2023/10/06 11:54:46;;;;;;;7.95;3.70;;;;;;;;;;5076962;28;20044;-79
2023/10/06 11:57:13;;;;;;;11.57;4.38;;;;;;;;;;5044130;28;20444;-79
2023/10/06 11:59:49;;;;;;;8.38;3.95;;;;;;;;;;5061054;28;20040;-79
2023/10/06 12:02:16;;;;;;;8.38;4.10;;;;;;;;;;5076897;28;20399;-79
2023/10/06 12:04:42;;;;;;;13.20;4.28;;;;;;;;;;5077019;28;20131;-79
2023/10/06 12:07:20;;;;;;;8.32;3.42;;;;;;;;;;5077215;28;20463;-80
2023/10/06 12:09:48;;;;;;;7.85;2.95;;;;;;;;;;5077280;28;20052;-78
2023/10/06 12:12:16;;;;;;;6.93;3.03;;;;;;;;;;5076892;28;20087;-79
2023/10/06 12:14:43;;;;;;;8.77;3.60;;;;;;;;;;5077187;28;20052;-79
2023/10/06 12:17:12;;;;;;;4.85;3.15;;;;;;;;;;5060398;28;20463;-79
2023/10/06 12:19:38;;;;;;;8.40;3.42;;;;;;;;;;5060544;28;20044;-79
2023/10/06 12:22:04;;;;;;;7.68;3.63;;;;;;;;;;5076479;28;20044;-79
2023/10/06 12:24:31;;;;;;;7.38;3.78;;;;;;;;;;5060255;28;20052;-79
2023/10/06 12:26:58;;;;;;;12.02;3.42;;;;;;;;;;5059978;28;20056;-79
2023/10/06 12:29:24;;;;;;;7.72;3.65;;;;;;;;;;5076514;28;20079;-79
2023/10/06 12:31:50;;;;;;;6.45;3.30;;;;;;;;;;5076037;28;20529;-79
2023/10/06 12:34:16;;;;;;;7.65;3.42;;;;;;;;;;5059010;28;20135;-79
2023/10/06 12:36:51;;;;;;;7.75;4.10;;;;;;;;;;5077267;28;20094;-79
2023/10/06 12:39:35;;;;;;;8.48;3.90;;;;;;;;;;5076184;28;20124;-79
2023/10/06 12:42:03;;;;;;;6.57;3.73;;;;;;;;;;5076366;28;20503;-79
2023/10/06 12:44:30;;;;;;;13.02;4.43;;;;;;;;;;5075488;28;20282;-79
2023/10/06 12:46:56;;;;;;;9.98;4.15;;;;;;;;;;5059512;28;20137;-79
2023/10/06 12:49:27;;;;;;;10.10;4.32;;;;;;;;;;5076493;28;20169;-79
2023/10/06 12:51:53;;;;;;;10.40;4.00;;;;;;;;;;5076538;28;20055;-79
2023/10/06 12:54:19;;;;;;;7.80;3.65;;;;;;;;;;5093902;28;20140;-78
2023/10/06 12:56:49;;;;;;;8.27;3.58;;;;;;;;;;5076151;28;20052;-79
2023/10/06 12:59:15;;;;;;;6.93;3.40;;;;;;;;;;5059675;28;20515;-79
2023/10/06 13:01:41;;;;;;;7.05;3.63;;;;;;;;;;5075928;28;20044;-79
2023/10/06 13:04:07;;;;;;;7.97;3.03;;;;;;;;;;5075730;28;20048;-79
2023/10/06 13:06:35;;;;;;;7.97;3.35;;;;;;;;;;5043107;28;20452;-79
2023/10/06 13:09:08;;;;;;;6.28;3.05;;;;;;;;;;5059374;28;20130;-79
2023/10/06 13:11:34;;;;;;;9.43;3.45;;;;;;;;;;5076497;28;20389;-78
2023/10/06 13:14:03;;;;;;;8.18;3.40;;;;;;;;;;5059392;28;20097;-78
2023/10/06 13:16:32;;;;;;;8.02;3.13;;;;;;;;;;5076123;28;20066;-78
2023/10/06 13:18:58;;;;;;;10.75;3.35;;;;;;;;;;5059327;28;20538;-78
2023/10/06 13:21:25;;;;;;;7.97;3.33;;;;;;;;;;5075623;28;20052;-78
2023/10/06 13:23:51;;;;;;;6.43;3.05;;;;;;;;;;5075953;28;20087;-79
2023/10/06 13:26:19;;;;;;;10.32;3.63;;;;;;;;;;5076038;28;20075;-78
2023/10/06 13:28:47;;;;;;;7.10;3.95;;;;;;;;;;5075861;28;20059;-79
2023/10/06 13:31:14;;;;;;;11.15;3.78;;;;;;;;;;5076033;28;20055;-78
2023/10/06 13:33:40;;;;;;;6.72;3.30;;;;;;;;;;5075836;28;20052;-79
2023/10/06 13:36:08;;;;;;;6.10;3.50;;;;;;;;;;5059314;28;20075;-78
2023/10/06 13:38:34;;;;;;;6.60;3.28;;;;;;;;;;5059520;28;20128;-79
2023/10/06 13:41:04;;;;;;;7.50;3.50;;;;;;;;;;5042372;28;20040;-79
2023/10/06 13:43:30;;;;;;;13.20;3.90;;;;;;;;;;5075808;28;20093;-79
2023/10/06 13:45:59;;;;;;;9.65;3.72;;;;;;;;;;5075993;28;20101;-79
2023/10/06 13:48:26;;;;;;;10.85;4.13;;;;;;;;;;5075960;28;20040;-80
2023/10/06 13:50:58;;;;;;;9.23;3.97;;;;;;;;;;5076032;28;20051;-79
2023/10/06 13:53:27;;;;;;;10.35;4.07;;;;;;;;;;5042989;28;20450;-79
2023/10/06 13:55:58;;;;;;;8.57;3.70;;;;;;;;;;5060584;28;20476;-79
2023/10/06 13:58:25;;;;;;;11.77;3.90;;;;;;;;;;5080231;28;20048;-78
2023/10/06 14:00:52;;;;;;;9.07;3.55;;;;;;;;;;5063545;28;20040;-78
2023/10/06 14:03:19;;;;;;;7.30;2.85;;;;;;;;;;5062486;28;20063;-78
2023/10/06 14:05:52;;;;;;;7.80;3.45;;;;;;;;;;5080103;28;20052;-78
2023/10/06 14:08:19;;;;;;;7.23;2.67;;;;;;;;;;5079465;28;20048;-78
2023/10/06 14:10:45;;;;;;;6.63;2.85;;;;;;;;;;5063027;28;20134;-79
2023/10/06 14:13:16;;;;;;;10.50;3.78;;;;;;;;;;5080146;28;20048;-79
2023/10/06 14:15:54;;;;;;;7.30;2.97;;;;;;;;;;5079639;28;20044;-78
2023/10/06 14:18:24;;;;;;;8.80;3.08;;;;;;;;;;5079456;28;20047;-78
2023/10/06 14:20:57;;;;;;;6.78;3.25;;;;;;;;;;5079159;28;20044;-78
2023/10/06 14:23:24;;;;;;;5.05;2.53;;;;;;;;;;5079347;28;20050;-78
2023/10/06 14:25:52;;;;;;;6.60;2.53;;;;;;;;;;5079184;28;20479;-78
2023/10/06 14:28:18;;;;;;;8.38;2.60;;;;;;;;;;5079623;28;20074;-78
2023/10/06 14:30:45;;;;;;;6.63;2.15;;;;;;;;;;5079530;28;20040;-79
2023/10/06 14:33:17;;;;;;;5.57;2.40;;;;;;;;;;5076648;28;20109;-78
2023/10/06 14:46:30;;;;;;;5.50;2.60;;;;;;;;;;5059283;28;20063;-79
2023/10/06 14:49:01;;;;;;;7.07;3.50;;;;;;;;;;5059298;28;20492;-79
2023/10/06 14:51:29;;;;;;;9.32;3.20;;;;;;;;;;5059471;28;20059;-79
2023/10/06 14:53:57;;;;;;;7.63;2.35;;;;;;;;;;5058083;28;20132;-79
2023/10/06 14:56:24;;;;;;;8.60;2.63;;;;;;;;;;5042220;28;20109;-79
2023/10/06 14:58:56;;;;;;;7.47;3.00;;;;;;;;;;5058450;28;20045;-78
2023/10/06 15:01:26;;;;;;;6.95;2.42;;;;;;;;;;5058123;28;20052;-79
2023/10/06 15:03:53;;;;;;;8.15;2.90;;;;;;;;;;5041803;28;20064;-79
2023/10/06 15:06:20;;;;;;;10.50;2.83;;;;;;;;;;5057703;28;20109;-79
2023/10/06 15:08:48;;;;;;;6.95;2.78;;;;;;;;;;5040599;28;20045;-79
2023/10/06 15:11:14;;;;;;;7.75;2.33;;;;;;;;;;5058804;28;20048;-79